Terminal Aerodrome Forecast
Issued by NWS

Home | Current Version | Previous Version | Text Only | Print | Product List | Glossary On
Versions: 1 2 3 4 5 6 7 8 9 10 11 12 13 14 15 16 17 18 19 20
007
FTUS44 KTSA 060520
TAFMLC
TAF
KMLC 060520Z 0606/0706 VRB04KT P6SM BKN015 OVC040
      TEMPO 0606/0610 4SM BR SCT015
     FM061000 35006KT P6SM OVC015
     FM061600 36011KT P6SM BKN025
     FM061800 01011KT P6SM BKN250=

USA.gov is the U.S. government's official web portal to all federal, state and local government web resources and services.